createdAt,value
2018-12-13T00:04:31.713Z,51.20
2018-12-13T00:09:33.869Z,54.60
2018-12-13T00:14:36.103Z,54.67
2018-12-13T00:19:38.169Z,53.17
2018-12-13T00:24:40.317Z,52.70
2018-12-13T00:29:42.484Z,55.73
2018-12-13T00:34:44.661Z,53.00
2018-12-13T00:39:46.861Z,55.27
2018-12-13T00:44:49.154Z,50.40
2018-12-13T00:49:51.331Z,45.77
2018-12-13T00:54:53.573Z,47.90
2018-12-13T00:59:55.741Z,51.70
2018-12-13T01:04:57.790Z,46.47
2018-12-13T01:09:59.853Z,43.93
2018-12-13T01:15:09.892Z,44.43
2018-12-13T01:20:12.053Z,47.63
2018-12-13T01:25:15.153Z,45.20
2018-12-13T01:30:17.328Z,40.07
2018-12-13T01:35:19.493Z,45.00
2018-12-13T01:40:21.769Z,42.87
2018-12-13T01:45:23.945Z,41.37
2018-12-13T01:50:26.201Z,43.83
2018-12-13T01:55:28.254Z,40.67
2018-12-13T02:00:30.437Z,38.30
2018-12-13T02:05:32.485Z,41.50
2018-12-13T02:10:34.686Z,39.77
2018-12-13T02:15:36.965Z,40.00
2018-12-13T02:20:40.013Z,39.93
2018-12-13T02:25:42.277Z,41.63
2018-12-13T02:30:44.557Z,38.73
2018-12-13T02:35:46.704Z,40.90
2018-12-13T02:40:49.498Z,37.63
2018-12-13T02:45:51.771Z,41.80
2018-12-13T02:50:53.828Z,43.40
2018-12-13T02:55:56.020Z,41.43
2018-12-13T03:00:58.094Z,46.77
2018-12-13T03:06:00.257Z,45.20
2018-12-13T03:11:02.461Z,42.67
2018-12-13T03:16:04.732Z,42.77
2018-12-13T03:21:08.805Z,46.07
2018-12-13T03:26:17.622Z,47.47
2018-12-13T03:31:19.789Z,49.67
2018-12-13T03:36:21.889Z,48.37
2018-12-13T03:41:24.221Z,47.40
2018-12-13T03:46:26.492Z,50.97
2018-12-13T03:51:36.299Z,47.43
2018-12-13T03:56:38.471Z,54.30
2018-12-13T04:01:40.541Z,46.70
2018-12-13T04:06:42.965Z,46.87
2018-12-13T04:11:45.128Z,44.37
2018-12-13T04:16:47.291Z,44.40
2018-12-13T04:21:50.145Z,51.07
2018-12-13T04:26:52.290Z,49.87
2018-12-13T04:31:54.478Z,53.30
2018-12-13T04:36:56.534Z,47.43
2018-12-13T04:41:58.733Z,52.77
2018-12-13T04:47:00.781Z,55.13
2018-12-13T04:52:03.238Z,54.07
2018-12-13T04:57:05.414Z,57.73
2018-12-13T05:02:14.624Z,53.63
2018-12-13T05:07:16.954Z,60.77
2018-12-13T05:12:18.997Z,55.73
2018-12-13T05:17:28.305Z,59.20
2018-12-13T05:22:30.373Z,57.03
2018-12-13T05:27:39.361Z,59.33
2018-12-13T05:32:41.449Z,63.03
2018-12-13T05:37:48.221Z,57.63
2018-12-13T05:42:47.734Z,68.33
2018-12-13T05:47:50.236Z,67.57
2018-12-13T05:52:52.722Z,60.73
2018-12-13T05:57:54.768Z,65.80
2018-12-13T06:02:56.825Z,68.30
2018-12-13T06:07:59.117Z,58.50
2018-12-13T06:13:01.581Z,58.40
2018-12-13T06:18:06.809Z,56.87
2018-12-13T06:23:08.013Z,53.93
2018-12-13T06:28:10.169Z,51.90
2018-12-13T06:33:12.358Z,58.47
2018-12-13T06:38:14.701Z,64.40
2018-12-13T06:43:16.865Z,77.73
2018-12-13T06:48:18.945Z,154.47
2018-12-13T06:53:21.249Z,93.33
2018-12-13T06:58:23.525Z,79.57
2018-12-13T07:03:32.594Z,57.67
2018-12-13T07:08:34.800Z,57.40
2018-12-13T07:13:37.000Z,52.07
2018-12-13T07:18:39.059Z,56.80
2018-12-13T07:23:41.222Z,50.70
2018-12-13T07:28:43.398Z,55.60
2018-12-13T07:33:46.753Z,54.60
2018-12-13T07:38:49.183Z,54.40
2018-12-13T07:43:51.256Z,55.67
2018-12-13T07:48:56.415Z,56.80
2018-12-13T07:53:57.394Z,63.57
2018-12-13T07:58:59.538Z,51.33
2018-12-13T08:04:01.721Z,53.37
2018-12-13T08:09:06.673Z,56.13
2018-12-13T08:14:09.885Z,55.33
2018-12-13T08:19:12.053Z,51.77
2018-12-13T08:24:16.258Z,51.07
2018-12-13T08:29:21.485Z,55.53
2018-12-13T08:34:24.701Z,57.87
2018-12-13T08:39:26.781Z,57.97
2018-12-13T08:44:28.997Z,66.77
2018-12-13T08:49:31.230Z,63.77
2018-12-13T08:54:33.402Z,67.70
2018-12-13T08:59:35.577Z,73.97
2018-12-13T09:04:38.534Z,73.23
2018-12-13T09:09:40.737Z,72.50
2018-12-13T09:14:42.814Z,70.83
2018-12-13T09:19:44.873Z,66.97
2018-12-13T09:24:47.159Z,80.37
2018-12-13T09:29:49.230Z,84.43
2018-12-13T09:34:51.289Z,73.70
2018-12-13T09:39:54.377Z,69.30
2018-12-13T09:44:56.581Z,80.60
2018-12-13T09:49:58.845Z,76.47
2018-12-13T09:55:05.619Z,74.67
2018-12-13T10:00:07.583Z,79.40
2018-12-13T10:05:10.857Z,78.30
2018-12-13T10:10:14.305Z,90.43
2018-12-13T10:15:16.582Z,94.07
2018-12-13T10:20:18.873Z,82.27
2018-12-13T10:25:21.038Z,87.43
2018-12-13T10:30:23.294Z,74.93
2018-12-13T10:35:25.475Z,66.70
2018-12-13T10:40:27.993Z,75.13
2018-12-13T10:45:30.037Z,69.07
2018-12-13T10:50:32.234Z,67.93
2018-12-13T10:55:34.828Z,60.67
2018-12-13T11:00:45.389Z,59.17
2018-12-13T11:05:47.556Z,52.87
2018-12-13T11:10:49.757Z,51.67
2018-12-13T11:15:52.007Z,54.87
2018-12-13T11:20:54.198Z,48.67
2018-12-13T11:25:56.341Z,66.80
2018-12-13T11:30:58.637Z,59.73
2018-12-13T11:36:00.806Z,51.17
2018-12-13T11:41:03.209Z,42.50
2018-12-13T11:46:05.421Z,48.43
2018-12-13T11:51:07.576Z,43.30
2018-12-13T11:56:09.876Z,41.50
2018-12-13T12:01:12.077Z,37.57
2018-12-13T12:06:14.369Z,39.27
2018-12-13T12:11:16.457Z,34.17
2018-12-13T12:16:18.541Z,39.47
2018-12-13T12:21:20.710Z,35.30
2018-12-13T12:26:23.018Z,41.53
2018-12-13T12:31:25.077Z,36.67
2018-12-13T12:36:27.676Z,37.80
2018-12-13T12:41:29.945Z,33.80
2018-12-13T12:46:32.161Z,33.73
2018-12-13T12:51:34.334Z,34.83
2018-12-13T12:56:37.597Z,35.47
2018-12-13T13:01:40.309Z,39.17
2018-12-13T13:06:42.654Z,35.77
2018-12-13T13:17:13.500Z,39.27
2018-12-13T13:22:15.550Z,40.47
2018-12-13T13:27:17.626Z,41.07
2018-12-13T13:32:19.737Z,41.70
2018-12-13T13:37:21.929Z,42.83
2018-12-13T13:42:24.092Z,40.23
2018-12-13T13:47:26.670Z,46.63
2018-12-13T13:52:30.070Z,42.87
2018-12-13T13:57:33.112Z,42.77
2018-12-13T14:02:35.454Z,32.93
2018-12-13T14:07:37.502Z,37.97
2018-12-13T14:12:39.572Z,39.50
2018-12-13T14:17:42.675Z,41.70
2018-12-13T14:22:54.218Z,39.20
2018-12-13T14:27:58.047Z,46.80
2018-12-13T14:33:00.530Z,43.53
2018-12-13T14:38:03.239Z,45.70
2018-12-13T14:43:06.909Z,42.27
2018-12-13T14:48:09.141Z,42.13
2018-12-13T14:53:11.649Z,43.23
2018-12-13T14:58:13.741Z,38.13
2018-12-13T15:03:15.987Z,51.20
2018-12-13T15:08:18.034Z,45.00
2018-12-13T15:13:20.162Z,42.93
2018-12-13T15:18:22.518Z,44.33
2018-12-13T15:23:25.674Z,40.00
2018-12-13T15:28:27.829Z,38.93
2018-12-13T15:33:36.957Z,35.73
2018-12-13T15:38:39.265Z,33.63
2018-12-13T15:43:41.442Z,35.97
2018-12-13T15:48:43.554Z,34.20
2018-12-13T15:53:46.715Z,30.80
2018-12-13T15:58:54.914Z,32.77
2018-12-13T16:03:58.297Z,33.83
2018-12-13T16:09:00.461Z,30.83
2018-12-13T16:14:03.601Z,33.40
2018-12-13T16:19:05.921Z,34.97
2018-12-13T16:24:08.197Z,37.30
2018-12-13T16:29:10.345Z,38.60
2018-12-13T16:34:12.569Z,38.87
2018-12-13T16:39:14.845Z,41.90
2018-12-13T16:44:16.889Z,41.50
2018-12-13T16:49:19.658Z,44.03
2018-12-13T16:54:22.445Z,70.17
2018-12-13T16:59:24.913Z,67.80
2018-12-13T17:04:27.201Z,66.80
2018-12-13T17:09:29.790Z,62.77
2018-12-13T17:14:32.596Z,55.67
2018-12-13T17:19:34.713Z,48.30
2018-12-13T17:24:36.997Z,49.17
2018-12-13T17:29:39.337Z,51.73
2018-12-13T17:34:41.968Z,54.87
2018-12-13T17:39:44.725Z,53.07
2018-12-13T17:44:46.987Z,53.77
2018-12-13T17:49:49.784Z,45.80
2018-12-13T17:54:52.106Z,53.67
2018-12-13T17:59:54.462Z,52.67
2018-12-13T18:04:57.649Z,54.00
2018-12-13T18:10:03.989Z,70.67
2018-12-13T18:15:07.169Z,60.00
2018-12-13T18:20:16.177Z,66.60
2018-12-13T18:25:18.894Z,65.53
2018-12-13T18:30:21.208Z,65.73
2018-12-13T18:35:23.421Z,67.47
2018-12-13T18:40:25.710Z,68.90
2018-12-13T18:45:32.894Z,63.10
2018-12-13T18:50:35.138Z,58.30
2018-12-13T18:55:37.186Z,60.67
2018-12-13T19:00:39.334Z,59.53
2018-12-13T19:05:41.651Z,53.53
2018-12-13T19:10:43.934Z,57.20
2018-12-13T19:15:45.991Z,55.90
2018-12-13T19:20:48.084Z,56.93
2018-12-13T19:25:50.162Z,55.70
2018-12-13T19:30:52.197Z,58.63
2018-12-13T19:35:54.475Z,59.23
2018-12-13T19:40:56.646Z,60.67
2018-12-13T19:45:59.191Z,65.37
2018-12-13T19:51:01.493Z,64.90
2018-12-13T19:56:03.759Z,67.87
2018-12-13T20:01:06.033Z,75.37
2018-12-13T20:06:08.965Z,77.50
2018-12-13T20:11:11.122Z,65.63
2018-12-13T20:16:13.390Z,71.37
2018-12-13T20:21:15.537Z,67.90
2018-12-13T20:26:17.756Z,67.57
2018-12-13T20:31:19.905Z,71.70
2018-12-13T20:36:22.183Z,62.37
2018-12-13T20:41:24.499Z,63.00
2018-12-13T20:46:27.233Z,63.27
2018-12-13T20:51:29.521Z,56.03
2018-12-13T20:56:31.834Z,63.23
2018-12-13T21:01:33.985Z,55.50
2018-12-13T21:06:36.219Z,62.73
2018-12-13T21:11:38.418Z,60.37
2018-12-13T21:16:40.605Z,57.07
2018-12-13T21:21:42.827Z,55.03
2018-12-13T21:26:45.940Z,59.60
2018-12-13T21:31:48.085Z,52.83
2018-12-13T21:36:50.245Z,58.70
2018-12-13T21:41:52.449Z,55.10
2018-12-13T21:46:54.729Z,61.47
2018-12-13T21:51:56.975Z,58.63
2018-12-13T21:56:59.494Z,60.73
2018-12-13T22:02:01.790Z,56.63
2018-12-13T22:07:04.111Z,52.40
2018-12-13T22:12:06.404Z,56.47
2018-12-13T22:17:08.586Z,54.97
2018-12-13T22:22:10.754Z,54.73
2018-12-13T22:27:12.905Z,53.17
2018-12-13T22:32:16.077Z,55.20
2018-12-13T22:37:18.129Z,58.87
2018-12-13T22:42:20.422Z,54.93
2018-12-13T22:47:22.714Z,60.33
2018-12-13T22:52:24.902Z,66.03
2018-12-13T22:57:27.183Z,65.53
2018-12-13T23:02:29.481Z,71.97
2018-12-13T23:07:31.633Z,69.83
2018-12-13T23:12:33.729Z,63.80
2018-12-13T23:17:35.928Z,60.97
2018-12-13T23:22:38.078Z,55.47
2018-12-13T23:27:40.139Z,52.93
2018-12-13T23:32:42.227Z,61.77
2018-12-13T23:37:44.263Z,68.90
2018-12-13T23:42:46.423Z,60.80
2018-12-13T23:47:48.584Z,67.37
2018-12-13T23:52:51.736Z,62.13
2018-12-13T23:57:53.894Z,55.00
